Time;durP1;ratioP1;P1;durP2;ratioP2;P2;SDS_P1;SDS_P2;PMS_P1;PMS_P2;Temp;Humidity;BMP_temperature;BMP_pressure;BME280_temperature;BME280_humidity;BME280_pressure;Samples;Min_cycle;Max_cycle;Signal;HPM_P1;HPM_P2
2023/01/14 00:01:21;;;;;;;0.60;0.60;;;3.40;99.90;;;;;;4128409;28;20724;-66
2023/01/14 00:03:21;;;;;;;1.80;0.80;;;3.40;99.90;;;;;;4161993;28;20631;-64
2023/01/14 00:05:22;;;;;;;2.73;1.00;;;3.40;99.90;;;;;;4145054;28;20413;-63
2023/01/14 00:07:23;;;;;;;0.60;0.60;;;3.40;99.90;;;;;;4162040;28;20191;-62
2023/01/14 00:09:27;;;;;;;6.03;0.90;;;3.40;99.90;;;;;;4162063;28;20180;-63
2023/01/14 00:11:46;;;;;;;0.70;0.60;;;3.30;99.90;;;;;;4163690;28;20195;-63
2023/01/14 00:13:46;;;;;;;2.00;0.73;;;3.20;99.90;;;;;;4149739;28;20471;-62
2023/01/14 00:15:53;;;;;;;5.90;0.80;;;3.20;99.90;;;;;;4147879;28;20432;-63
2023/01/14 00:17:54;;;;;;;3.27;0.80;;;3.20;99.90;;;;;;4165648;28;20795;-63
2023/01/14 00:19:55;;;;;;;2.53;0.73;;;3.10;99.90;;;;;;4165742;28;20501;-62
2023/01/14 00:21:55;;;;;;;3.07;0.60;;;3.00;99.90;;;;;;4165440;28;20215;-63
2023/01/14 00:23:56;;;;;;;0.60;0.60;;;2.90;99.90;;;;;;4147649;28;20237;-63
2023/01/14 00:26:21;;;;;;;2.70;0.70;;;2.90;99.90;;;;;;4165503;28;20177;-63
2023/01/14 00:28:22;;;;;;;1.40;0.50;;;2.80;99.90;;;;;;4165209;28;20202;-63
2023/01/14 00:30:22;;;;;;;3.17;0.60;;;2.90;99.90;;;;;;4166015;28;20430;-62
2023/01/14 00:32:23;;;;;;;2.30;0.73;;;2.80;99.90;;;;;;4164730;28;20736;-62
2023/01/14 00:34:26;;;;;;;2.13;0.67;;;2.50;99.90;;;;;;4165591;28;20662;-64
2023/01/14 00:36:27;;;;;;;0.70;0.50;;;2.40;99.90;;;;;;4165511;28;20215;-62
2023/01/14 00:38:28;;;;;;;2.00;0.70;;;2.50;99.90;;;;;;4147899;28;20438;-63
2023/01/14 00:40:29;;;;;;;5.03;1.27;;;2.40;99.90;;;;;;4165406;28;20464;-63
2023/01/14 00:42:30;;;;;;;2.90;0.60;;;2.40;99.90;;;;;;4164743;28;20803;-63
2023/01/14 00:44:30;;;;;;;0.90;0.57;;;2.30;99.90;;;;;;4165275;28;20576;-63
2023/01/14 00:46:34;;;;;;;2.27;0.60;;;2.20;99.90;;;;;;4165478;28;20540;-63
2023/01/14 00:48:36;;;;;;;3.00;1.00;;;2.40;99.90;;;;;;4147372;28;20183;-63
2023/01/14 00:50:37;;;;;;;2.90;0.70;;;2.30;99.90;;;;;;4147916;28;20432;-63
2023/01/14 00:52:37;;;;;;;1.23;0.57;;;2.20;99.90;;;;;;4164546;28;20794;-63
2023/01/14 00:54:38;;;;;;;3.17;0.80;;;2.10;99.90;;;;;;4165276;28;20188;-64
2023/01/14 00:56:39;;;;;;;0.73;0.50;;;2.20;99.90;;;;;;4165174;28;20184;-63
2023/01/14 00:58:40;;;;;;;5.03;0.80;;;2.30;99.90;;;;;;4165208;28;20192;-63
2023/01/14 01:00:41;;;;;;;1.17;0.80;;;2.30;99.90;;;;;;4164813;28;20434;-63
2023/01/14 01:02:41;;;;;;;2.90;0.77;;;2.20;99.90;;;;;;4146624;28;20303;-62
2023/01/14 01:04:42;;;;;;;5.13;1.07;;;2.10;99.90;;;;;;4165107;28;20707;-63
2023/01/14 01:06:43;;;;;;;1.60;0.70;;;2.20;99.90;;;;;;4164794;28;20252;-63
2023/01/14 01:08:44;;;;;;;2.47;0.60;;;2.20;99.90;;;;;;4164919;28;20187;-63
2023/01/14 01:10:46;;;;;;;3.80;0.87;;;2.30;99.90;;;;;;4147047;28;20686;-64
2023/01/14 01:12:46;;;;;;;2.97;0.77;;;2.40;99.90;;;;;;4146318;28;20454;-64
2023/01/14 01:14:47;;;;;;;3.10;1.10;;;2.30;99.90;;;;;;4164917;28;20460;-63
2023/01/14 01:16:48;;;;;;;2.53;0.93;;;2.40;99.90;;;;;;4164800;28;20181;-64
2023/01/14 01:18:48;;;;;;;2.50;0.73;;;2.30;99.90;;;;;;4167344;28;20196;-63
2023/01/14 01:20:49;;;;;;;1.60;1.50;;;2.20;99.90;;;;;;4173117;28;20222;-63
2023/01/14 01:22:50;;;;;;;3.77;0.90;;;2.20;99.90;;;;;;4164215;28;20204;-62
2023/01/14 01:24:51;;;;;;;2.90;1.07;;;2.10;99.90;;;;;;4164821;28;20686;-63
2023/01/14 01:26:51;;;;;;;1.83;0.90;;;2.10;99.90;;;;;;4147396;28;20224;-63
2023/01/14 01:28:57;;;;;;;3.60;1.00;;;2.20;99.90;;;;;;4165189;28;20450;-63
2023/01/14 01:31:05;;;;;;;4.43;0.70;;;2.20;99.90;;;;;;4165214;28;20178;-63
2023/01/14 01:33:05;;;;;;;4.17;1.10;;;2.10;99.90;;;;;;4163625;28;20458;-63
2023/01/14 01:35:07;;;;;;;2.03;1.10;;;2.20;99.90;;;;;;4148500;28;20427;-63
2023/01/14 01:37:07;;;;;;;1.70;1.00;;;2.20;99.90;;;;;;4148723;28;20189;-64
2023/01/14 01:39:08;;;;;;;10.63;1.60;;;2.30;99.90;;;;;;4148281;28;20970;-63
2023/01/14 01:41:22;;;;;;;2.37;1.30;;;2.40;99.90;;;;;;4148311;28;20213;-64
2023/01/14 01:43:27;;;;;;;3.50;0.80;;;2.60;99.90;;;;;;4129973;28;20594;-63
2023/01/14 01:45:39;;;;;;;1.10;0.70;;;2.70;99.90;;;;;;4147812;28;20405;-63
2023/01/14 01:47:40;;;;;;;5.07;1.33;;;2.90;99.90;;;;;;4130457;28;20810;-63
2023/01/14 01:49:41;;;;;;;2.23;0.70;;;2.90;99.90;;;;;;4148186;28;20428;-64
2023/01/14 01:51:51;;;;;;;6.60;1.03;;;2.80;99.90;;;;;;4130553;28;20829;-63
2023/01/14 01:53:55;;;;;;;2.10;1.00;;;2.80;99.90;;;;;;4130162;28;20487;-64
2023/01/14 01:55:57;;;;;;;5.70;0.90;;;2.70;99.90;;;;;;4130791;28;20536;-65
2023/01/14 01:57:58;;;;;;;1.97;0.87;;;2.70;99.90;;;;;;4130616;28;20424;-64
2023/01/14 02:00:09;;;;;;;5.20;1.00;;;2.70;99.90;;;;;;4147641;28;20740;-64
2023/01/14 02:02:10;;;;;;;4.70;0.83;;;2.80;99.90;;;;;;4147716;28;20203;-64
2023/01/14 02:04:12;;;;;;;1.63;0.90;;;2.70;99.90;;;;;;4129623;28;20541;-64
2023/01/14 02:06:15;;;;;;;3.47;1.00;;;2.70;99.90;;;;;;4147690;28;20423;-64
2023/01/14 02:08:15;;;;;;;1.33;0.70;;;2.80;99.90;;;;;;4130454;28;20829;-64
2023/01/14 02:10:18;;;;;;;4.07;0.87;;;2.70;99.90;;;;;;4149800;28;20455;-64
2023/01/14 02:12:36;;;;;;;3.17;1.10;;;2.70;99.90;;;;;;4129268;28;20201;-63
2023/01/14 02:15:11;;;;;;;1.33;0.70;;;2.60;99.90;;;;;;4147403;28;20439;-64
2023/01/14 02:17:33;;;;;;;1.87;0.63;;;2.60;99.90;;;;;;4133851;28;20450;-64
2023/01/14 02:20:10;;;;;;;1.47;0.63;;;2.70;99.90;;;;;;4147054;28;20416;-64
2023/01/14 02:22:34;;;;;;;3.47;0.97;;;2.60;99.90;;;;;;4129544;28;20870;-64
2023/01/14 02:24:50;;;;;;;1.13;0.77;;;2.60;99.90;;;;;;4147342;28;20417;-64
2023/01/14 02:27:21;;;;;;;3.70;1.13;;;2.60;99.90;;;;;;4147244;28;20436;-64
2023/01/14 02:30:03;;;;;;;3.23;0.90;;;2.50;99.90;;;;;;4129774;28;20928;-64
2023/01/14 02:32:10;;;;;;;1.60;1.00;;;2.60;99.90;;;;;;4146935;28;20446;-64
2023/01/14 02:34:21;;;;;;;2.80;1.40;;;2.70;99.90;;;;;;4146436;28;20455;-64
2023/01/14 02:36:37;;;;;;;4.03;1.40;;;2.60;99.90;;;;;;4129623;28;20418;-64
2023/01/14 02:39:01;;;;;;;4.50;1.10;;;2.60;99.90;;;;;;4129365;28;20429;-64
2023/01/14 02:44:06;;;;;;;3.97;1.27;;;2.80;99.90;;;;;;4146836;28;20431;-64
2023/01/14 02:44:10;;;;;;;3.60;1.00;;;2.90;99.90;;;;;;4146228;28;20551;-64
2023/01/14 02:46:20;;;;;;;5.50;1.60;;;3.00;99.90;;;;;;4146725;28;20420;-64
2023/01/14 02:48:23;;;;;;;6.33;1.30;;;3.00;99.90;;;;;;4129551;28;20840;-64
2023/01/14 02:50:24;;;;;;;4.60;1.97;;;2.90;99.90;;;;;;4129283;28;20520;-64
2023/01/14 02:52:25;;;;;;;9.90;1.60;;;3.00;99.90;;;;;;4146385;28;20433;-64
2023/01/14 02:54:27;;;;;;;7.70;1.50;;;2.80;99.90;;;;;;4146744;28;20530;-63
2023/01/14 02:56:27;;;;;;;3.43;1.50;;;2.70;99.90;;;;;;4146700;28;20522;-64
2023/01/14 02:58:48;;;;;;;5.90;1.67;;;2.70;99.90;;;;;;4129094;28;20471;-64
2023/01/14 03:01:20;;;;;;;6.13;1.60;;;2.80;99.90;;;;;;4129134;28;20208;-64
2023/01/14 03:03:53;;;;;;;6.87;1.27;;;2.70;99.90;;;;;;4112310;28;20457;-64
2023/01/14 03:06:24;;;;;;;6.90;1.57;;;2.70;99.90;;;;;;4129243;28;20425;-64
2023/01/14 03:08:36;;;;;;;7.70;1.73;;;2.60;99.90;;;;;;4129262;28;20454;-63
2023/01/14 03:10:48;;;;;;;4.53;1.63;;;2.60;99.90;;;;;;4144241;28;20829;-63
2023/01/14 03:13:08;;;;;;;9.47;1.60;;;2.60;99.90;;;;;;4144805;28;20538;-63
2023/01/14 03:15:34;;;;;;;13.40;2.00;;;2.70;99.90;;;;;;4139343;28;20539;-63
2023/01/14 03:17:58;;;;;;;9.63;1.70;;;2.80;99.90;;;;;;4142174;28;20556;-64
2023/01/14 03:20:25;;;;;;;9.47;1.70;;;2.80;99.90;;;;;;4150424;28;20437;-63
2023/01/14 03:22:27;;;;;;;10.67;2.10;;;2.80;99.90;;;;;;4152295;28;20707;-64
2023/01/14 03:24:36;;;;;;;14.77;3.43;;;2.90;99.90;;;;;;4146248;28;20879;-64
2023/01/14 03:26:39;;;;;;;7.43;2.33;;;2.90;99.90;;;;;;4145605;28;20418;-65
2023/01/14 03:28:49;;;;;;;5.10;2.10;;;3.00;99.90;;;;;;4145315;28;20425;-64
2023/01/14 03:31:03;;;;;;;10.50;2.67;;;3.10;99.90;;;;;;4145014;28;20467;-64
2023/01/14 03:33:12;;;;;;;5.83;1.50;;;3.10;99.90;;;;;;4144258;28;20460;-64
2023/01/14 03:35:25;;;;;;;6.33;1.40;;;3.10;99.90;;;;;;4145269;28;20534;-64
2023/01/14 03:37:28;;;;;;;4.17;2.00;;;3.00;99.90;;;;;;4145188;28;20426;-64
2023/01/14 03:39:29;;;;;;;9.37;1.60;;;3.00;99.90;;;;;;4145051;28;20828;-63
2023/01/14 03:43:53;;;;;;;6.93;1.80;;;3.20;99.90;;;;;;4146930;28;20993;-64
2023/01/14 03:45:55;;;;;;;5.20;2.30;;;3.30;99.90;;;;;;4144343;28;20467;-64
2023/01/14 03:47:57;;;;;;;7.37;1.67;;;3.30;99.90;;;;;;4162366;28;20434;-64
2023/01/14 03:50:02;;;;;;;4.73;1.67;;;3.40;99.90;;;;;;4144872;28;20467;-64
2023/01/14 03:52:57;;;;;;;10.03;1.80;;;3.40;99.90;;;;;;4144886;28;20432;-64
2023/01/14 03:55:15;;;;;;;11.37;2.03;;;3.50;99.90;;;;;;4142146;28;20443;-64
2023/01/14 03:57:26;;;;;;;8.07;1.70;;;3.50;99.90;;;;;;4162549;28;20443;-64
2023/01/14 04:00:01;;;;;;;8.27;1.90;;;3.40;99.90;;;;;;4144871;28;20420;-64
2023/01/14 04:02:03;;;;;;;10.70;2.37;;;3.40;99.90;;;;;;4161900;28;20482;-64
2023/01/14 04:04:05;;;;;;;7.80;1.53;;;3.40;99.90;;;;;;4144255;28;20436;-64
2023/01/14 04:06:06;;;;;;;8.87;1.60;;;3.30;99.90;;;;;;4144703;28;20464;-63
2023/01/14 04:08:08;;;;;;;6.83;1.97;;;3.40;99.90;;;;;;4144814;28;20437;-64
2023/01/14 04:10:09;;;;;;;13.63;2.57;;;3.40;99.90;;;;;;4128454;28;20846;-64
2023/01/14 04:12:10;;;;;;;10.13;2.23;;;3.40;99.90;;;;;;4162291;28;20490;-64
2023/01/14 04:16:35;;;;;;;7.87;1.63;;;3.40;99.90;;;;;;4133728;28;20617;-64
2023/01/14 04:18:35;;;;;;;13.17;1.77;;;3.40;99.90;;;;;;4127870;28;20452;-64
2023/01/14 04:20:36;;;;;;;9.57;1.80;;;3.40;99.90;;;;;;4162086;28;20229;-64
2023/01/14 04:22:37;;;;;;;13.13;2.53;;;3.60;99.90;;;;;;4161362;28;20234;-64
2023/01/14 04:24:37;;;;;;;15.63;3.17;;;3.60;99.90;;;;;;4162148;28;20224;-64
2023/01/14 04:26:38;;;;;;;7.17;1.90;;;3.50;99.90;;;;;;4162365;28;20227;-64
2023/01/14 04:28:39;;;;;;;7.63;1.60;;;3.40;99.90;;;;;;4162086;28;20220;-64
2023/01/14 04:30:41;;;;;;;11.63;1.87;;;3.40;99.90;;;;;;4161899;28;20184;-64
2023/01/14 04:32:42;;;;;;;10.57;2.30;;;3.50;99.90;;;;;;4161592;28;20287;-64
2023/01/14 04:34:42;;;;;;;10.27;2.73;;;3.60;99.90;;;;;;4162485;28;20442;-64
2023/01/14 04:36:43;;;;;;;11.10;2.00;;;3.50;99.90;;;;;;4162304;28;20180;-64
2023/01/14 04:38:44;;;;;;;6.20;1.83;;;3.50;99.90;;;;;;4161983;28;20193;-64
2023/01/14 04:40:44;;;;;;;6.83;1.60;;;3.40;99.90;;;;;;4162186;28;20185;-64
2023/01/14 04:42:45;;;;;;;5.73;1.60;;;3.30;99.90;;;;;;4161315;28;20220;-65
2023/01/14 04:44:47;;;;;;;10.67;2.77;;;3.30;99.90;;;;;;4161676;28;20203;-64
2023/01/14 04:46:48;;;;;;;7.90;1.90;;;3.30;99.90;;;;;;4161972;28;20286;-64
2023/01/14 04:48:49;;;;;;;6.60;1.47;;;3.30;99.90;;;;;;4162089;28;20910;-64
2023/01/14 04:50:50;;;;;;;15.00;2.57;;;3.20;99.90;;;;;;4161938;28;20185;-64
2023/01/14 04:52:51;;;;;;;11.03;2.13;;;3.30;99.90;;;;;;4161685;28;20200;-64
2023/01/14 04:54:52;;;;;;;6.97;1.80;;;3.40;99.90;;;;;;4162439;28;20514;-64
2023/01/14 04:56:52;;;;;;;7.13;1.77;;;3.40;99.90;;;;;;4145146;28;20188;-64
2023/01/14 04:58:53;;;;;;;9.97;1.87;;;3.50;99.90;;;;;;4165101;28;20195;-64
2023/01/14 05:00:54;;;;;;;8.87;1.70;;;3.50;99.90;;;;;;4164503;28;20630;-64
2023/01/14 05:02:55;;;;;;;3.77;1.40;;;3.60;99.90;;;;;;4146875;28;20205;-65
2023/01/14 05:04:55;;;;;;;8.70;2.73;;;3.60;99.90;;;;;;4164951;28;20237;-64
2023/01/14 05:06:57;;;;;;;15.03;1.87;;;3.60;99.90;;;;;;4164664;28;20658;-64
2023/01/14 05:08:57;;;;;;;11.50;2.07;;;3.60;99.90;;;;;;4164617;28;20181;-64
2023/01/14 05:10:58;;;;;;;6.43;1.63;;;3.60;99.90;;;;;;4164334;28;20430;-65
2023/01/14 05:13:00;;;;;;;9.17;1.57;;;3.50;99.90;;;;;;4163853;28;20201;-64
2023/01/14 05:15:00;;;;;;;11.83;1.83;;;3.50;99.90;;;;;;4164269;28;20246;-64
2023/01/14 05:17:01;;;;;;;13.73;2.50;;;3.50;99.90;;;;;;4130516;28;20834;-64
2023/01/14 05:19:02;;;;;;;15.67;1.90;;;3.50;99.90;;;;;;4164224;28;20181;-64
2023/01/14 05:21:04;;;;;;;7.73;2.40;;;3.50;99.90;;;;;;4170725;28;20192;-64
2023/01/14 05:23:16;;;;;;;11.80;1.70;;;3.50;99.90;;;;;;4178722;28;20211;-63
2023/01/14 05:25:18;;;;;;;8.43;1.73;;;3.50;99.90;;;;;;4154061;28;20450;-64
2023/01/14 05:27:18;;;;;;;11.67;2.43;;;3.60;99.90;;;;;;4162229;28;20435;-64
2023/01/14 05:29:19;;;;;;;3.73;1.50;;;3.70;99.90;;;;;;4164245;28;20420;-64
2023/01/14 05:31:20;;;;;;;8.40;2.27;;;3.70;99.90;;;;;;4164589;28;20658;-63
2023/01/14 05:33:20;;;;;;;7.20;1.50;;;3.80;99.90;;;;;;4164173;28;20214;-64
2023/01/14 05:35:22;;;;;;;5.10;1.70;;;3.80;99.90;;;;;;4164474;28;20181;-64
2023/01/14 05:37:23;;;;;;;5.00;1.37;;;3.80;99.90;;;;;;4164552;28;20223;-65
2023/01/14 05:39:23;;;;;;;12.03;1.70;;;3.90;99.90;;;;;;4164240;28;20439;-64
2023/01/14 05:41:24;;;;;;;7.23;1.73;;;3.90;99.90;;;;;;4148257;28;20720;-64
2023/01/14 05:45:48;;;;;;;6.27;1.20;;;4.10;99.90;;;;;;4164035;28;20215;-64
2023/01/14 05:47:49;;;;;;;4.53;1.60;;;4.10;99.90;;;;;;4147114;28;20487;-64
2023/01/14 05:49:49;;;;;;;6.77;1.30;;;4.10;99.90;;;;;;4164013;28;20427;-62
2023/01/14 05:51:50;;;;;;;4.80;1.40;;;4.10;99.90;;;;;;4146373;28;20174;-65
2023/01/14 05:53:51;;;;;;;4.57;1.30;;;4.10;99.90;;;;;;4163657;28;20204;-63
2023/01/14 05:55:52;;;;;;;10.93;1.80;;;4.10;99.90;;;;;;4163632;28;20228;-63
2023/01/14 05:57:53;;;;;;;15.30;2.20;;;4.10;99.90;;;;;;4146383;28;20240;-63
2023/01/14 05:59:53;;;;;;;4.93;1.63;;;4.00;99.90;;;;;;4163844;28;20420;-64
2023/01/14 06:06:39;;;;;;;6.63;1.37;;;4.00;99.90;;;;;;4163716;28;20403;-64
2023/01/14 06:08:39;;;;;;;7.83;1.40;;;4.10;99.90;;;;;;4145508;28;20913;-64
2023/01/14 06:10:40;;;;;;;4.63;1.17;;;4.10;99.90;;;;;;4163281;28;20423;-64
2023/01/14 06:13:02;;;;;;;7.60;1.73;;;4.20;99.90;;;;;;4162670;28;20212;-63
2023/01/14 06:15:03;;;;;;;6.03;1.20;;;4.20;99.90;;;;;;4163569;28;20204;-64
2023/01/14 06:17:08;;;;;;;6.70;1.50;;;4.10;99.90;;;;;;4163343;28;20450;-64
2023/01/14 06:19:11;;;;;;;3.90;1.53;;;4.10;99.90;;;;;;4163354;28;20405;-64
2023/01/14 06:21:22;;;;;;;4.47;1.27;;;4.00;99.90;;;;;;4162686;28;20908;-64
2023/01/14 06:23:22;;;;;;;3.33;1.30;;;4.10;99.90;;;;;;4144767;28;20440;-63
2023/01/14 06:25:24;;;;;;;6.70;1.73;;;4.00;99.90;;;;;;4163220;28;20453;-63
2023/01/14 06:27:25;;;;;;;3.67;1.30;;;4.10;99.90;;;;;;4163187;28;20423;-63
2023/01/14 06:29:25;;;;;;;4.20;1.30;;;4.10;99.90;;;;;;4163043;28;20185;-63
2023/01/14 06:31:27;;;;;;;9.33;2.93;;;4.10;99.90;;;;;;4163048;28;20196;-63
2023/01/14 06:33:28;;;;;;;5.30;1.57;;;4.20;99.90;;;;;;4144845;28;20711;-63
2023/01/14 06:35:28;;;;;;;5.27;1.60;;;4.20;99.90;;;;;;4162955;28;20435;-64
2023/01/14 06:37:29;;;;;;;7.80;1.40;;;4.20;99.90;;;;;;4163027;28;20644;-63
2023/01/14 06:39:30;;;;;;;7.20;2.30;;;4.20;99.90;;;;;;4163125;28;20289;-63
2023/01/14 06:41:30;;;;;;;6.97;2.30;;;4.30;99.90;;;;;;4162981;28;20209;-63
2023/01/14 06:43:32;;;;;;;13.37;2.03;;;4.40;99.90;;;;;;4162448;28;20247;-63
2023/01/14 06:45:33;;;;;;;7.43;1.83;;;4.50;99.90;;;;;;4162711;28;20238;-63
2023/01/14 06:47:34;;;;;;;6.13;1.40;;;4.40;99.90;;;;;;4162936;28;20420;-64
2023/01/14 06:49:35;;;;;;;7.50;1.40;;;4.30;99.90;;;;;;4145116;28;20472;-64
2023/01/14 06:51:35;;;;;;;9.50;4.40;;;4.30;99.90;;;;;;4145440;28;20190;-65
2023/01/14 06:53:36;;;;;;;11.00;3.00;;;4.30;99.90;;;;;;4162410;28;20266;-64
2023/01/14 06:55:37;;;;;;;6.33;1.40;;;4.20;99.90;;;;;;4162844;28;20812;-64
2023/01/14 06:57:38;;;;;;;3.17;1.33;;;4.10;99.90;;;;;;4162855;28;20637;-64
2023/01/14 06:59:38;;;;;;;12.47;1.53;;;3.90;99.90;;;;;;4162815;28;20189;-65
2023/01/14 07:01:39;;;;;;;3.23;1.40;;;3.80;99.90;;;;;;4162612;28;20258;-62
2023/01/14 07:03:40;;;;;;;8.00;1.73;;;3.70;99.90;;;;;;4144494;28;20212;-66
2023/01/14 07:05:40;;;;;;;3.60;1.77;;;3.70;99.90;;;;;;4162714;28;20188;-64
2023/01/14 07:07:44;;;;;;;6.93;1.60;;;3.70;99.90;;;;;;4162722;28;20195;-64
2023/01/14 07:09:45;;;;;;;5.70;1.43;;;3.70;99.90;;;;;;4162532;28;20532;-64
2023/01/14 07:11:45;;;;;;;6.07;1.50;;;3.70;99.90;;;;;;4162563;28;20427;-64
2023/01/14 07:13:46;;;;;;;7.73;1.60;;;3.70;99.90;;;;;;4161820;28;20228;-65
2023/01/14 07:15:47;;;;;;;4.70;1.40;;;3.70;99.90;;;;;;4162835;28;20177;-65
2023/01/14 07:17:48;;;;;;;7.53;1.77;;;3.80;99.90;;;;;;4162518;28;20193;-65
2023/01/14 07:19:50;;;;;;;9.53;1.57;;;3.90;99.90;;;;;;4162754;28;20434;-64
2023/01/14 07:21:51;;;;;;;3.03;1.90;;;3.80;99.90;;;;;;4163694;28;20471;-64
2023/01/14 07:23:52;;;;;;;6.60;2.10;;;3.70;99.90;;;;;;4171026;28;20479;-64
2023/01/14 07:25:55;;;;;;;9.63;2.10;;;3.70;99.90;;;;;;4164909;28;20717;-64
2023/01/14 07:27:56;;;;;;;5.43;1.47;;;3.70;99.90;;;;;;4143249;28;20280;-65
2023/01/14 07:29:57;;;;;;;6.13;1.17;;;3.70;99.90;;;;;;4161825;28;20489;-64
2023/01/14 07:31:58;;;;;;;4.30;1.40;;;3.70;99.90;;;;;;4159269;28;20239;-65
2023/01/14 07:33:59;;;;;;;3.87;1.17;;;3.70;99.90;;;;;;4145907;28;20929;-65
2023/01/14 07:36:00;;;;;;;5.83;1.03;;;3.70;99.90;;;;;;4148962;28;20201;-65
2023/01/14 07:38:00;;;;;;;3.00;1.37;;;3.70;99.90;;;;;;4162579;28;20206;-62
2023/01/14 07:40:03;;;;;;;3.43;1.10;;;3.80;99.90;;;;;;4162068;28;20264;-64
2023/01/14 07:42:03;;;;;;;2.80;1.10;;;3.80;99.90;;;;;;4162185;28;20221;-64
2023/01/14 07:44:04;;;;;;;4.00;1.30;;;3.70;99.90;;;;;;4161347;28;20451;-64
2023/01/14 07:46:07;;;;;;;5.13;1.67;;;3.70;99.90;;;;;;4162257;28;20227;-64
2023/01/14 07:48:08;;;;;;;9.27;2.53;;;3.70;99.90;;;;;;4162188;28;20187;-64
2023/01/14 07:50:10;;;;;;;5.03;2.00;;;3.70;99.90;;;;;;4162165;28;20451;-65
2023/01/14 07:52:12;;;;;;;6.60;1.90;;;3.70;99.90;;;;;;4162112;28;20262;-64
2023/01/14 07:54:13;;;;;;;6.30;2.03;;;3.70;99.90;;;;;;4161599;28;20959;-64
2023/01/14 07:56:14;;;;;;;4.63;1.80;;;3.70;99.90;;;;;;4144803;28;20436;-64
2023/01/14 07:58:15;;;;;;;6.17;1.50;;;3.70;99.90;;;;;;4162254;28;20189;-64
2023/01/14 08:00:17;;;;;;;3.10;1.40;;;3.70;99.90;;;;;;4144184;28;20190;-64
2023/01/14 08:02:17;;;;;;;3.40;1.73;;;3.80;99.90;;;;;;4161691;28;20316;-64
2023/01/14 08:04:18;;;;;;;3.37;1.30;;;3.90;99.90;;;;;;4161526;28;20515;-64
2023/01/14 08:06:19;;;;;;;2.93;1.10;;;4.00;99.90;;;;;;4161588;28;20223;-64
2023/01/14 08:08:19;;;;;;;2.60;1.20;;;3.90;99.90;;;;;;4161710;28;20561;-64
2023/01/14 08:10:20;;;;;;;2.97;1.00;;;3.90;99.90;;;;;;4161733;28;20587;-64
2023/01/14 08:12:21;;;;;;;2.33;0.90;;;3.90;99.90;;;;;;4157722;28;20182;-64
2023/01/14 08:14:22;;;;;;;4.90;2.80;;;3.90;99.90;;;;;;4161562;28;20475;-64
2023/01/14 08:16:22;;;;;;;5.30;2.20;;;4.00;99.90;;;;;;4161780;28;20184;-64
2023/01/14 08:18:23;;;;;;;3.77;1.30;;;4.00;99.90;;;;;;4161819;28;20533;-64
2023/01/14 08:20:25;;;;;;;5.87;2.40;;;4.10;99.90;;;;;;4162047;28;20539;-64
2023/01/14 08:22:28;;;;;;;4.73;1.93;;;4.00;99.90;;;;;;4143715;28;20218;-65
2023/01/14 08:24:29;;;;;;;4.80;2.23;;;4.10;99.90;;;;;;4160548;28;20522;-64
2023/01/14 08:26:30;;;;;;;7.03;1.90;;;4.10;99.90;;;;;;4161685;28;20807;-65
2023/01/14 08:28:32;;;;;;;5.00;2.50;;;4.00;99.90;;;;;;4161743;28;20753;-65
2023/01/14 08:30:32;;;;;;;2.40;1.37;;;4.00;99.90;;;;;;4161522;28;20664;-64
2023/01/14 08:32:33;;;;;;;6.83;1.80;;;4.10;99.90;;;;;;4161997;28;20427;-65
2023/01/14 08:34:34;;;;;;;5.07;1.60;;;4.20;99.90;;;;;;4164574;28;20250;-64
2023/01/14 08:36:34;;;;;;;4.93;1.80;;;4.20;99.90;;;;;;4164844;28;20197;-64
2023/01/14 08:38:37;;;;;;;6.20;1.83;;;4.40;99.90;;;;;;4164593;28;20188;-64
2023/01/14 08:40:38;;;;;;;3.20;1.30;;;4.40;99.90;;;;;;4165120;28;20255;-64
2023/01/14 08:42:38;;;;;;;1.40;1.10;;;4.50;99.90;;;;;;4163806;28;20483;-63
2023/01/14 08:44:39;;;;;;;1.67;0.87;;;4.60;99.90;;;;;;4164517;28;20191;-65
2023/01/14 08:46:41;;;;;;;5.23;2.20;;;4.60;99.90;;;;;;4164735;28;20185;-66
2023/01/14 08:48:42;;;;;;;6.80;1.93;;;4.70;99.90;;;;;;4152639;28;20204;-65
2023/01/14 08:50:42;;;;;;;4.00;1.87;;;4.90;99.90;;;;;;4162894;28;20424;-66
2023/01/14 08:52:43;;;;;;;2.10;1.63;;;5.00;99.90;;;;;;4144081;28;20220;-65
2023/01/14 08:54:44;;;;;;;2.23;1.40;;;5.20;99.90;;;;;;4163857;28;20197;-65
2023/01/14 08:56:44;;;;;;;2.20;1.27;;;5.20;99.90;;;;;;4146234;28;20208;-65
2023/01/14 08:58:45;;;;;;;3.50;0.80;;;5.30;99.90;;;;;;4163883;28;20189;-65
2023/01/14 09:00:46;;;;;;;2.00;0.80;;;5.40;99.90;;;;;;4164021;28;20193;-64
2023/01/14 09:02:46;;;;;;;3.07;1.27;;;5.50;99.90;;;;;;4163239;28;20220;-65
2023/01/14 09:04:47;;;;;;;1.53;0.70;;;5.50;99.90;;;;;;4146241;28;20188;-65
2023/01/14 09:18:38;;;;;;;1.33;0.80;;;5.60;99.90;;;;;;4148710;28;20474;-65
2023/01/14 09:20:41;;;;;;;1.30;0.80;;;5.70;99.90;;;;;;4145954;28;20433;-65
2023/01/14 09:22:41;;;;;;;1.80;1.10;;;5.80;99.90;;;;;;4145272;28;20213;-66
2023/01/14 09:24:42;;;;;;;2.07;0.90;;;5.70;99.90;;;;;;4149894;28;20467;-65
2023/01/14 09:26:43;;;;;;;1.70;0.90;;;5.80;99.90;;;;;;4168513;28;20789;-65
2023/01/14 09:28:43;;;;;;;1.83;0.70;;;5.70;99.90;;;;;;4163798;28;20713;-65
2023/01/14 09:30:46;;;;;;;0.87;0.60;;;5.70;99.90;;;;;;4163735;28;20216;-65
2023/01/14 09:32:46;;;;;;;1.23;0.60;;;5.80;99.90;;;;;;4162981;28;20232;-64
2023/01/14 09:34:49;;;;;;;0.77;0.70;;;5.70;99.90;;;;;;4145981;28;20536;-65
2023/01/14 09:36:50;;;;;;;1.17;0.90;;;5.80;99.90;;;;;;4163628;28;20247;-66
2023/01/14 09:38:51;;;;;;;1.33;0.67;;;5.80;99.90;;;;;;4145327;28;20463;-66
2023/01/14 09:40:52;;;;;;;1.23;0.47;;;6.10;99.90;;;;;;4164053;28;20207;-65
2023/01/14 09:42:53;;;;;;;0.50;0.50;;;6.10;99.90;;;;;;4162752;28;20229;-65
2023/01/14 09:45:11;;;;;;;2.10;0.67;;;6.10;99.90;;;;;;4144884;28;20714;-66
2023/01/14 09:47:17;;;;;;;0.80;0.50;;;6.30;99.90;;;;;;4163624;28;20169;-65
2023/01/14 09:49:23;;;;;;;2.80;0.73;;;6.40;99.90;;;;;;4145864;28;20213;-65
2023/01/14 09:51:54;;;;;;;1.80;0.53;;;6.40;99.90;;;;;;4145823;28;20269;-64
2023/01/14 09:54:43;;;;;;;1.70;0.60;;;6.40;99.90;;;;;;4162688;28;20205;-65
2023/01/14 09:57:24;;;;;;;0.83;0.80;;;6.60;99.90;;;;;;4163234;28;20678;-65
2023/01/14 10:00:04;;;;;;;0.90;0.60;;;6.80;99.90;;;;;;4120068;28;20236;-64
2023/01/14 10:02:18;;;;;;;0.80;0.50;;;6.90;99.90;;;;;;4144962;28;20284;-64
2023/01/14 10:04:41;;;;;;;2.53;0.50;;;6.80;99.90;;;;;;4163016;28;20220;-64
2023/01/14 10:06:43;;;;;;;0.40;0.40;;;6.80;99.90;;;;;;4145246;28;20185;-64
2023/01/14 10:09:05;;;;;;;0.47;0.30;;;6.90;99.90;;;;;;4163177;28;20203;-64
2023/01/14 10:11:07;;;;;;;1.77;0.50;;;7.10;99.90;;;;;;4145315;28;20177;-65
2023/01/14 10:13:30;;;;;;;0.97;0.57;;;7.00;99.90;;;;;;4160150;28;20242;-63
2023/01/14 10:15:41;;;;;;;0.40;0.40;;;7.10;99.90;;;;;;4163056;28;20803;-64
2023/01/14 10:17:48;;;;;;;1.37;0.50;;;7.00;99.90;;;;;;4145303;28;20305;-64
2023/01/14 10:19:51;;;;;;;0.70;0.60;;;7.00;99.90;;;;;;4163301;28;20261;-64
2023/01/14 10:21:59;;;;;;;0.60;0.40;;;7.10;99.90;;;;;;4145542;28;20288;-64
2023/01/14 10:24:00;;;;;;;0.63;0.50;;;7.00;99.90;;;;;;4162440;28;20641;-65
2023/01/14 10:26:01;;;;;;;0.50;0.50;;;7.10;99.90;;;;;;4128676;28;20186;-65
2023/01/14 10:28:02;;;;;;;0.93;0.60;;;7.20;99.90;;;;;;4144778;28;20323;-65
2023/01/14 10:30:21;;;;;;;1.20;0.80;;;7.10;99.90;;;;;;4145001;28;20198;-66
2023/01/14 10:32:22;;;;;;;0.97;0.67;;;7.10;99.90;;;;;;4162181;28;20204;-64
2023/01/14 10:34:35;;;;;;;1.77;0.73;;;7.30;99.90;;;;;;4145015;28;20673;-65
2023/01/14 10:36:37;;;;;;;1.57;0.93;;;7.30;99.90;;;;;;4162578;28;20224;-65
2023/01/14 10:38:40;;;;;;;0.80;0.70;;;7.30;99.90;;;;;;4144975;28;20189;-64
2023/01/14 10:40:41;;;;;;;1.57;0.60;;;7.50;99.70;;;;;;4144993;28;20192;-65
2023/01/14 10:42:42;;;;;;;1.37;0.70;;;7.40;98.70;;;;;;4144102;28;20290;-64
2023/01/14 10:44:43;;;;;;;1.10;0.93;;;7.30;99.70;;;;;;4162615;28;20188;-65
2023/01/14 10:46:45;;;;;;;2.93;1.03;;;7.40;99.90;;;;;;4162556;28;20189;-66
2023/01/14 10:49:04;;;;;;;1.43;1.07;;;7.50;99.70;;;;;;4162699;28;20185;-64
2023/01/14 10:51:46;;;;;;;1.60;1.17;;;7.60;99.90;;;;;;4130729;28;20675;-66
2023/01/14 10:53:47;;;;;;;2.30;1.23;;;7.80;99.50;;;;;;4161834;28;20215;-64
2023/01/14 10:56:00;;;;;;;3.10;1.57;;;7.90;97.20;;;;;;4161976;28;20666;-64
2023/01/14 10:58:15;;;;;;;4.70;1.50;;;7.60;98.40;;;;;;4144690;28;20192;-65
2023/01/14 11:00:37;;;;;;;2.43;0.90;;;7.40;98.70;;;;;;4162181;28;20196;-65
2023/01/14 11:02:46;;;;;;;2.67;1.23;;;7.50;99.20;;;;;;4141876;28;20278;-64
2023/01/14 11:04:48;;;;;;;1.67;0.83;;;7.50;98.40;;;;;;4144294;28;20184;-64
2023/01/14 11:06:49;;;;;;;2.00;1.17;;;7.40;97.40;;;;;;4162281;28;20195;-64
2023/01/14 11:08:53;;;;;;;2.10;1.00;;;7.50;98.40;;;;;;4162190;28;20189;-64
2023/01/14 11:11:20;;;;;;;1.90;0.90;;;7.40;98.20;;;;;;4146121;28;20263;-65
2023/01/14 11:13:44;;;;;;;1.30;0.70;;;7.40;99.10;;;;;;4160939;28;20220;-65
2023/01/14 11:15:45;;;;;;;2.03;0.60;;;7.50;97.80;;;;;;4161944;28;20235;-65
2023/01/14 11:17:46;;;;;;;1.03;0.80;;;7.50;98.60;;;;;;4161897;28;20199;-65
2023/01/14 11:19:47;;;;;;;7.33;2.67;;;7.60;97.40;;;;;;4161864;28;20653;-65
2023/01/14 11:22:00;;;;;;;2.13;0.83;;;7.70;97.60;;;;;;4161997;28;20205;-64
2023/01/14 11:24:29;;;;;;;1.17;0.87;;;7.70;97.30;;;;;;4161689;28;20201;-64